createdAt,value
2023-02-12T00:01:10.771Z,29.58
2023-02-12T00:03:39.582Z,26.75
2023-02-12T00:06:08.262Z,29.65
2023-02-12T00:08:37.041Z,28.13
2023-02-12T00:11:09.909Z,27.25
2023-02-12T00:13:38.308Z,28.83
2023-02-12T00:16:08.385Z,31.13
2023-02-12T00:18:38.216Z,28.33
2023-02-12T00:21:08.911Z,32.37
2023-02-12T00:23:37.984Z,29.38
2023-02-12T00:26:07.604Z,29.02
2023-02-12T00:28:36.663Z,29.30
2023-02-12T00:31:08.666Z,30.23
2023-02-12T00:33:38.534Z,29.08
2023-02-12T00:36:08.128Z,28.92
2023-02-12T00:38:36.882Z,29.67
2023-02-12T00:41:05.448Z,29.77
2023-02-12T00:43:33.715Z,31.88
2023-02-12T00:46:02.033Z,28.13
2023-02-12T00:48:30.390Z,27.85
2023-02-12T00:51:00.224Z,29.52
2023-02-12T00:53:28.584Z,28.63
2023-02-12T00:55:57.422Z,32.90
2023-02-12T00:58:26.240Z,28.95
2023-02-12T01:00:54.959Z,30.55
2023-02-12T01:03:23.541Z,29.73
2023-02-12T01:05:51.976Z,26.90
2023-02-12T01:08:21.644Z,29.83
2023-02-12T01:10:56.134Z,30.30
2023-02-12T01:13:25.676Z,31.35
2023-02-12T01:16:03.095Z,29.13
2023-02-12T01:18:31.506Z,32.60
2023-02-12T01:20:59.831Z,29.35
2023-02-12T01:23:29.522Z,31.73
2023-02-12T01:25:59.838Z,35.27
2023-02-12T01:28:28.205Z,29.58
2023-02-12T01:30:56.748Z,32.80
2023-02-12T01:33:25.095Z,34.63
2023-02-12T01:35:53.637Z,29.60
2023-02-12T01:38:22.116Z,32.05
2023-02-12T01:40:51.803Z,30.15
2023-02-12T01:43:20.064Z,33.23
2023-02-12T01:45:53.620Z,30.48
2023-02-12T01:48:25.357Z,32.25
2023-02-12T01:50:54.445Z,33.17
2023-02-12T01:53:26.355Z,31.02
2023-02-12T01:58:26.288Z,31.77
2023-02-12T02:00:54.950Z,33.13
2023-02-12T02:03:23.402Z,35.30
2023-02-12T02:05:56.506Z,37.13
2023-02-12T02:08:26.296Z,33.63
2023-02-12T02:10:56.183Z,35.05
2023-02-12T02:13:38.413Z,34.60
2023-02-12T02:16:14.304Z,31.00
2023-02-12T02:18:45.544Z,36.97
2023-02-12T02:21:45.686Z,31.50
2023-02-12T02:24:42.134Z,33.35
2023-02-12T02:27:20.945Z,34.28
2023-02-12T02:30:24.682Z,37.00
2023-02-12T02:32:59.673Z,33.90
2023-02-12T02:35:32.309Z,37.08
2023-02-12T02:38:09.159Z,36.60
2023-02-12T02:40:41.623Z,38.10
2023-02-12T02:43:16.654Z,37.95
2023-02-12T02:45:47.330Z,38.03
2023-02-12T02:50:50.116Z,34.28
2023-02-12T02:53:22.179Z,35.55
2023-02-12T02:55:54.359Z,34.85
2023-02-12T02:58:25.976Z,36.05
2023-02-12T03:00:58.678Z,38.10
2023-02-12T03:03:33.797Z,35.85
2023-02-12T03:06:05.266Z,39.97
2023-02-12T03:08:37.426Z,36.10
2023-02-12T03:11:09.353Z,39.72
2023-02-12T03:13:40.688Z,36.78
2023-02-12T03:16:10.876Z,38.80
2023-02-12T03:18:47.701Z,38.15
2023-02-12T03:21:20.112Z,37.75
2023-02-12T03:23:51.130Z,36.17
2023-02-12T03:26:23.128Z,40.00
2023-02-12T03:28:52.180Z,37.75
2023-02-12T03:31:28.786Z,41.35
2023-02-12T03:34:07.183Z,38.17
2023-02-12T03:36:44.385Z,43.45
2023-02-12T03:39:16.455Z,39.35
2023-02-12T03:41:47.344Z,39.85
2023-02-12T03:44:21.472Z,35.83
2023-02-12T03:46:59.224Z,38.55
2023-02-12T03:49:32.588Z,40.67
2023-02-12T03:52:00.899Z,43.38
2023-02-12T03:54:29.307Z,38.30
2023-02-12T03:57:01.894Z,38.95
2023-02-12T03:59:30.439Z,38.40
2023-02-12T04:02:00.533Z,44.30
2023-02-12T04:04:30.601Z,40.78
2023-02-12T04:06:59.241Z,43.08
2023-02-12T04:09:28.220Z,41.30
2023-02-12T04:12:07.324Z,42.50
2023-02-12T04:14:43.425Z,38.10
2023-02-12T04:17:20.368Z,41.75
2023-02-12T04:19:59.805Z,40.35
2023-02-12T04:22:42.231Z,41.90
2023-02-12T04:25:22.123Z,40.05
2023-02-12T04:27:58.632Z,41.33
2023-02-12T04:30:30.079Z,41.17
2023-02-12T04:33:01.745Z,38.30
2023-02-12T04:35:34.126Z,39.30
2023-02-12T04:38:09.329Z,39.80
2023-02-12T04:40:39.865Z,40.42
2023-02-12T04:43:08.199Z,43.38
2023-02-12T04:45:37.466Z,44.20
2023-02-12T04:48:06.586Z,42.10
2023-02-12T04:50:40.055Z,38.90
2023-02-12T04:53:08.528Z,39.83
2023-02-12T04:55:36.977Z,41.10
2023-02-12T04:58:05.774Z,39.53
2023-02-12T05:00:34.218Z,41.42
2023-02-12T05:03:02.671Z,44.25
2023-02-12T05:05:30.963Z,44.40
2023-02-12T05:08:00.665Z,43.15
2023-02-12T05:10:29.123Z,41.60
2023-02-12T05:12:57.471Z,45.13
2023-02-12T05:15:25.779Z,48.80
2023-02-12T05:17:54.229Z,46.65
2023-02-12T05:20:22.524Z,44.45
2023-02-12T05:22:53.641Z,50.15
2023-02-12T05:25:23.299Z,46.78
2023-02-12T05:27:51.638Z,46.83
2023-02-12T05:30:20.337Z,45.58
2023-02-12T05:32:48.664Z,52.40
2023-02-12T05:35:17.098Z,50.63
2023-02-12T05:37:45.531Z,48.55
2023-02-12T05:40:14.724Z,49.50
2023-02-12T05:42:44.389Z,49.70
2023-02-12T05:45:12.694Z,48.50
2023-02-12T05:47:40.984Z,51.75
2023-02-12T05:50:09.847Z,45.83
2023-02-12T05:52:38.144Z,45.08
2023-02-12T05:55:07.387Z,49.63
2023-02-12T05:57:35.750Z,46.95
2023-02-12T06:00:07.020Z,48.42
2023-02-12T06:02:35.680Z,47.42
2023-02-12T06:05:04.160Z,48.70
2023-02-12T06:07:32.485Z,48.50
2023-02-12T06:10:00.910Z,52.60
2023-02-12T06:12:29.174Z,47.67
2023-02-12T06:14:57.509Z,49.13
2023-02-12T06:17:27.223Z,49.58
2023-02-12T06:19:55.528Z,55.23
2023-02-12T06:22:23.898Z,50.70
2023-02-12T06:24:52.252Z,50.75
2023-02-12T06:27:20.613Z,54.92
2023-02-12T06:29:48.928Z,49.80
2023-02-12T06:32:17.535Z,54.05
2023-02-12T06:34:47.268Z,53.28
2023-02-12T06:37:15.565Z,56.10
2023-02-12T06:39:43.860Z,55.50
2023-02-12T06:42:12.229Z,53.92
2023-02-12T06:44:40.580Z,52.90
2023-02-12T06:47:08.927Z,54.88
2023-02-12T06:49:37.204Z,51.63
2023-02-12T06:52:06.905Z,49.05
2023-02-12T06:54:35.203Z,52.00
2023-02-12T06:57:03.543Z,56.20
2023-02-12T06:59:31.927Z,51.58
2023-02-12T07:02:00.240Z,52.05
2023-02-12T07:04:28.531Z,47.42
2023-02-12T07:06:56.837Z,58.75
2023-02-12T07:09:27.602Z,53.65
2023-02-12T07:11:56.980Z,49.42
2023-02-12T07:14:26.612Z,52.75
2023-02-12T07:16:57.213Z,45.92
2023-02-12T07:19:26.466Z,50.20
2023-02-12T07:21:54.724Z,52.88
2023-02-12T07:24:23.006Z,57.65
2023-02-12T07:26:52.664Z,54.70
2023-02-12T07:29:20.946Z,55.75
2023-02-12T07:31:49.282Z,54.08
2023-02-12T07:34:17.699Z,55.38
2023-02-12T07:36:46.101Z,53.95
2023-02-12T07:39:14.916Z,52.70
2023-02-12T07:41:43.194Z,50.63
2023-02-12T07:44:13.902Z,57.53
2023-02-12T07:46:45.668Z,53.50
2023-02-12T07:49:18.026Z,58.92
2023-02-12T07:51:46.430Z,57.92
2023-02-12T07:54:15.608Z,54.88
2023-02-12T07:56:46.892Z,52.05
2023-02-12T07:59:18.352Z,54.45
2023-02-12T08:01:48.048Z,52.90
2023-02-12T08:04:18.158Z,55.80
2023-02-12T08:06:48.044Z,51.75
2023-02-12T08:09:18.458Z,59.97
2023-02-12T08:11:47.290Z,53.20
2023-02-12T08:14:18.692Z,52.83
2023-02-12T08:16:48.253Z,55.80
2023-02-12T08:19:21.672Z,57.72
2023-02-12T08:21:51.521Z,56.88
2023-02-12T08:24:19.884Z,56.13
2023-02-12T08:26:48.166Z,50.00
2023-02-12T08:29:20.075Z,52.63
2023-02-12T08:31:50.177Z,58.40
2023-02-12T08:34:20.011Z,57.08
2023-02-12T08:36:49.347Z,56.70
2023-02-12T08:39:19.303Z,57.40
2023-02-12T08:41:48.068Z,53.30
2023-02-12T08:44:18.137Z,55.60
2023-02-12T08:46:48.006Z,57.70
2023-02-12T08:49:18.942Z,293.52
2023-02-12T08:51:51.468Z,61.17
2023-02-12T08:54:21.311Z,52.08
2023-02-12T08:56:49.675Z,56.15
2023-02-12T08:59:19.321Z,59.92
2023-02-12T09:01:48.199Z,53.67
2023-02-12T09:04:18.324Z,53.15
2023-02-12T09:06:47.721Z,53.00
2023-02-12T09:09:16.543Z,54.53
2023-02-12T09:11:45.045Z,52.50
2023-02-12T09:14:15.984Z,51.42
2023-02-12T09:16:46.077Z,59.13
2023-02-12T09:19:15.904Z,48.05
2023-02-12T09:21:44.181Z,47.03
2023-02-12T09:24:12.631Z,50.00
2023-02-12T09:26:41.447Z,53.30
2023-02-12T09:29:09.762Z,53.13
2023-02-12T09:31:38.138Z,49.20
2023-02-12T09:34:08.261Z,50.47
2023-02-12T09:36:37.213Z,50.85
2023-02-12T09:39:05.899Z,45.95
2023-02-12T09:41:47.874Z,46.28
2023-02-12T09:44:21.258Z,44.80
2023-02-12T09:46:51.781Z,37.42
2023-02-12T09:51:54.863Z,40.25
2023-02-12T09:54:25.086Z,35.67
2023-02-12T09:56:56.458Z,35.38
2023-02-12T09:59:31.996Z,35.08
2023-02-12T10:02:00.451Z,33.35
2023-02-12T10:04:30.376Z,38.03
2023-02-12T10:07:04.390Z,38.63
2023-02-12T10:09:44.176Z,41.55
2023-02-12T10:12:17.058Z,34.43
2023-02-12T10:14:57.365Z,32.25
2023-02-12T10:17:34.742Z,32.47
2023-02-12T10:20:39.007Z,31.83
2023-02-12T10:23:22.534Z,30.00
2023-02-12T10:25:54.226Z,24.80
2023-02-12T10:28:27.259Z,28.55
2023-02-12T10:30:57.964Z,32.45
2023-02-12T10:33:29.293Z,31.10
2023-02-12T10:36:02.240Z,29.65
2023-02-12T10:38:33.067Z,29.15
2023-02-12T10:41:02.568Z,27.92
2023-02-12T10:43:32.111Z,28.55
2023-02-12T10:46:00.419Z,28.80
2023-02-12T10:48:32.772Z,25.05
2023-02-12T10:51:15.200Z,28.13
2023-02-12T10:53:44.715Z,19.10
2023-02-12T10:56:17.349Z,16.90
2023-02-12T10:58:54.670Z,16.35
2023-02-12T11:01:27.017Z,17.25
2023-02-12T11:03:56.181Z,17.13
2023-02-12T11:06:27.805Z,18.70
2023-02-12T11:08:57.348Z,17.50
2023-02-12T11:11:28.553Z,19.63
2023-02-12T11:13:59.843Z,25.15
2023-02-12T11:16:29.799Z,22.08
2023-02-12T11:19:05.893Z,24.35
2023-02-12T11:21:36.466Z,16.83
2023-02-12T11:26:51.922Z,17.50
2023-02-12T11:29:23.658Z,17.67
2023-02-12T11:32:02.658Z,15.25
2023-02-12T11:34:31.120Z,14.40
2023-02-12T11:37:01.904Z,16.58
2023-02-12T11:39:33.055Z,14.35
2023-02-12T11:42:04.911Z,16.42
2023-02-12T11:44:35.644Z,20.77
2023-02-12T11:47:08.940Z,22.40
2023-02-12T11:49:44.227Z,26.80
2023-02-12T11:52:23.203Z,25.25
2023-02-12T11:54:53.375Z,19.88
2023-02-12T11:57:38.017Z,22.70
2023-02-12T12:00:14.009Z,24.17
2023-02-12T12:02:46.036Z,22.00
2023-02-12T12:05:17.809Z,23.75
2023-02-12T12:07:51.386Z,26.15
2023-02-12T12:10:24.317Z,29.83
2023-02-12T12:12:55.086Z,29.85
2023-02-12T12:15:43.128Z,31.85
2023-02-12T12:18:39.229Z,33.40
2023-02-12T12:21:11.122Z,37.10
2023-02-12T12:23:44.702Z,37.78
2023-02-12T12:26:17.554Z,35.60
2023-02-12T12:28:50.019Z,37.13
2023-02-12T12:31:20.745Z,34.22
2023-02-12T12:33:51.226Z,34.20
2023-02-12T12:37:02.211Z,31.80
2023-02-12T12:39:36.776Z,34.72
2023-02-12T12:42:47.259Z,37.28
2023-02-12T12:45:26.254Z,29.85
2023-02-12T12:48:03.680Z,39.00
2023-02-12T12:50:49.690Z,36.45
2023-02-12T12:53:26.491Z,35.63
2023-02-12T12:56:27.844Z,34.75
2023-02-12T12:59:09.667Z,33.55
2023-02-12T13:01:54.335Z,36.90
2023-02-12T13:04:37.064Z,30.42
2023-02-12T13:07:14.742Z,30.90
2023-02-12T13:09:52.910Z,32.25
2023-02-12T13:12:43.313Z,30.70
2023-02-12T13:15:20.720Z,34.80
2023-02-12T13:17:53.109Z,29.85
2023-02-12T13:20:26.634Z,31.85
2023-02-12T13:23:00.575Z,34.05
2023-02-12T13:25:33.743Z,33.42
2023-02-12T13:28:04.523Z,34.45
2023-02-12T13:30:35.160Z,34.92
2023-02-12T13:35:34.342Z,30.30
2023-02-12T13:38:04.179Z,29.80
2023-02-12T13:40:32.606Z,27.33
2023-02-12T13:43:08.901Z,31.75
2023-02-12T13:45:43.383Z,27.17
2023-02-12T13:48:29.124Z,27.48
2023-02-12T13:51:02.409Z,27.58
2023-02-12T13:53:37.067Z,26.83
2023-02-12T13:56:08.576Z,28.80
2023-02-12T13:58:47.756Z,27.02
2023-02-12T14:01:37.739Z,27.15
2023-02-12T14:04:29.078Z,26.88
2023-02-12T14:07:01.375Z,26.75
2023-02-12T14:09:37.819Z,22.40
2023-02-12T14:12:07.773Z,22.80
2023-02-12T14:14:39.188Z,25.85
2023-02-12T14:17:41.767Z,22.63
2023-02-12T14:20:22.588Z,23.63
2023-02-12T14:23:21.584Z,24.17
2023-02-12T14:25:57.998Z,28.55
2023-02-12T14:28:31.127Z,27.30
2023-02-12T14:31:27.540Z,26.13
2023-02-12T14:34:50.047Z,26.52
2023-02-12T14:37:33.150Z,24.80
2023-02-12T14:40:47.187Z,26.13
2023-02-12T14:43:30.446Z,24.90
2023-02-12T14:46:00.578Z,26.58
2023-02-12T14:48:49.477Z,27.05
2023-02-12T14:51:20.639Z,27.48
2023-02-12T14:53:49.898Z,31.25
2023-02-12T14:56:21.764Z,30.85
2023-02-12T14:58:50.596Z,24.75
2023-02-12T15:01:19.230Z,30.77
2023-02-12T15:03:51.842Z,25.52
2023-02-12T15:06:23.088Z,26.42
2023-02-12T15:08:55.147Z,30.90
2023-02-12T15:11:29.494Z,31.48
2023-02-12T15:14:01.301Z,30.13
2023-02-12T15:16:35.947Z,31.50
2023-02-12T15:19:11.893Z,33.00
2023-02-12T15:21:40.377Z,30.98
2023-02-12T15:24:09.853Z,30.25
2023-02-12T15:26:41.608Z,30.67
2023-02-12T15:29:18.265Z,33.60
2023-02-12T15:31:52.200Z,27.52
2023-02-12T15:34:24.262Z,34.05
2023-02-12T15:36:52.545Z,34.55
2023-02-12T15:39:22.698Z,32.33
2023-02-12T15:41:52.204Z,30.83
2023-02-12T15:44:28.378Z,29.75
2023-02-12T15:47:03.137Z,32.28
2023-02-12T15:49:35.760Z,30.65
2023-02-12T15:52:06.600Z,32.05
2023-02-12T15:54:35.027Z,31.15
2023-02-12T15:57:03.687Z,34.17
2023-02-12T15:59:31.975Z,32.38
2023-02-12T16:02:03.448Z,32.38
2023-02-12T16:04:37.135Z,31.38
2023-02-12T16:07:05.550Z,32.55
2023-02-12T16:09:35.160Z,33.17
2023-02-12T16:12:05.554Z,33.70
2023-02-12T16:14:40.877Z,36.20
2023-02-12T16:17:22.201Z,33.67
2023-02-12T16:19:59.642Z,33.65
2023-02-12T16:22:31.404Z,34.00
2023-02-12T16:25:00.145Z,34.95
2023-02-12T16:27:30.929Z,34.83
2023-02-12T16:30:01.083Z,30.60
2023-02-12T16:32:32.297Z,29.83
2023-02-12T16:35:05.998Z,35.58
2023-02-12T16:37:46.555Z,35.30
2023-02-12T16:40:29.966Z,34.67
2023-02-12T16:43:26.362Z,35.83
2023-02-12T16:46:04.847Z,34.50
2023-02-12T16:48:38.419Z,37.10
2023-02-12T16:51:21.652Z,41.33
2023-02-12T16:53:53.812Z,40.60
2023-02-12T16:56:23.508Z,43.47
2023-02-12T16:58:55.208Z,44.53
2023-02-12T17:01:25.214Z,46.83
2023-02-12T17:03:54.582Z,48.72
2023-02-12T17:06:26.617Z,40.97
2023-02-12T17:08:54.830Z,40.28
2023-02-12T17:11:24.216Z,42.67
2023-02-12T17:13:54.472Z,45.97
2023-02-12T17:16:32.130Z,36.83
2023-02-12T17:19:01.446Z,106.57
2023-02-12T17:21:37.903Z,48.97
2023-02-12T17:24:07.017Z,43.25
2023-02-12T17:26:35.252Z,45.72
2023-02-12T17:29:05.472Z,51.55
2023-02-12T17:31:34.209Z,44.42
2023-02-12T17:34:02.632Z,42.72
2023-02-12T17:36:32.271Z,44.72
2023-02-12T17:39:00.782Z,38.60
2023-02-12T17:41:29.013Z,40.15
2023-02-12T17:43:57.293Z,43.22
2023-02-12T17:46:26.757Z,42.83
2023-02-12T17:48:55.180Z,46.60
2023-02-12T17:51:23.736Z,41.20
2023-02-12T17:53:53.496Z,45.45
2023-02-12T17:56:23.176Z,42.13
2023-02-12T17:58:51.588Z,44.92
2023-02-12T18:01:21.403Z,43.72
2023-02-12T18:03:51.466Z,42.53
2023-02-12T18:08:53.377Z,44.75
2023-02-12T18:11:21.703Z,52.28
2023-02-12T18:13:52.890Z,53.30
2023-02-12T18:16:21.666Z,46.22
2023-02-12T18:18:50.284Z,48.13
2023-02-12T18:21:18.942Z,42.78
2023-02-12T18:23:47.435Z,43.67
2023-02-12T18:26:18.462Z,35.08
2023-02-12T18:28:47.053Z,41.63
2023-02-12T18:31:15.851Z,46.70
2023-02-12T18:33:44.270Z,50.75
2023-02-12T18:36:14.177Z,41.08
2023-02-12T18:38:43.274Z,47.78
2023-02-12T18:41:13.438Z,46.17
2023-02-12T18:43:43.998Z,60.85
2023-02-12T18:48:41.178Z,52.45
2023-02-12T18:51:11.815Z,48.38
2023-02-12T18:56:09.563Z,47.00
2023-02-12T18:58:38.734Z,46.30
2023-02-12T19:01:15.182Z,52.00
2023-02-12T19:03:43.510Z,53.05
2023-02-12T19:06:11.958Z,47.55
2023-02-12T19:08:40.266Z,48.97
2023-02-12T19:11:08.773Z,49.05
2023-02-12T19:13:37.088Z,60.30
2023-02-12T19:16:08.977Z,43.78
2023-02-12T19:18:38.616Z,50.13
2023-02-12T19:21:08.169Z,50.38
2023-02-12T19:23:36.692Z,60.38
2023-02-12T19:26:06.017Z,50.45
2023-02-12T19:28:35.706Z,54.67
2023-02-12T19:31:10.665Z,50.23
2023-02-12T19:33:40.952Z,51.20
2023-02-12T19:36:11.386Z,45.45
2023-02-12T19:38:39.811Z,48.22
2023-02-12T19:41:09.669Z,47.70
2023-02-12T19:43:37.944Z,63.95
2023-02-12T19:46:07.326Z,43.85
2023-02-12T19:48:35.970Z,59.20
2023-02-12T19:51:06.334Z,49.95
2023-02-12T19:53:34.612Z,55.40
2023-02-12T19:56:03.536Z,60.17
2023-02-12T19:58:32.056Z,54.88
2023-02-12T20:01:00.569Z,58.40
2023-02-12T20:03:28.815Z,59.53
2023-02-12T20:06:01.607Z,49.90
2023-02-12T20:08:31.229Z,60.75
2023-02-12T20:10:59.454Z,61.22
2023-02-12T20:13:27.649Z,85.07
2023-02-12T20:15:56.006Z,56.70
2023-02-12T20:18:24.259Z,51.85
2023-02-12T20:20:52.497Z,119.53
2023-02-12T20:23:20.831Z,115.47
2023-02-12T20:25:50.508Z,63.50
2023-02-12T20:28:19.073Z,72.70
2023-02-12T20:30:48.579Z,171.65
2023-02-12T20:33:16.934Z,69.00
2023-02-12T20:35:45.289Z,100.47
2023-02-12T20:38:13.592Z,50.88
2023-02-12T20:40:41.956Z,58.13
2023-02-12T20:43:11.625Z,95.90
2023-02-12T20:45:39.919Z,51.73
2023-02-12T20:48:08.266Z,121.28
2023-02-12T20:50:36.597Z,64.80
2023-02-12T20:53:06.015Z,67.65
2023-02-12T20:55:34.554Z,115.30
2023-02-12T20:58:02.851Z,77.05
2023-02-12T21:00:32.511Z,61.10
2023-02-12T21:03:03.888Z,64.40
2023-02-12T21:05:32.919Z,62.03
2023-02-12T21:08:01.185Z,116.28
2023-02-12T21:10:30.722Z,77.65
2023-02-12T21:12:58.969Z,95.22
2023-02-12T21:15:27.427Z,68.85
2023-02-12T21:17:57.888Z,127.65
2023-02-12T21:20:26.136Z,108.10
2023-02-12T21:22:54.372Z,124.00
2023-02-12T21:25:22.647Z,135.57
2023-02-12T21:27:50.881Z,114.70
2023-02-12T21:30:19.456Z,158.50
2023-02-12T21:32:47.707Z,90.97
2023-02-12T21:35:17.436Z,88.45
2023-02-12T21:37:45.658Z,74.23
2023-02-12T21:40:14.213Z,76.63
2023-02-12T21:42:42.426Z,68.25
2023-02-12T21:45:10.898Z,56.88
2023-02-12T21:47:39.150Z,84.95
2023-02-12T21:50:08.512Z,122.53
2023-02-12T21:52:38.167Z,86.53
2023-02-12T21:55:06.918Z,82.30
2023-02-12T21:57:35.237Z,145.52
2023-02-12T22:00:03.654Z,82.40
2023-02-12T22:02:32.033Z,205.95
2023-02-12T22:05:00.355Z,106.32
2023-02-12T22:07:28.705Z,99.05
2023-02-12T22:09:58.419Z,157.27
2023-02-12T22:12:26.792Z,82.60
2023-02-12T22:14:55.091Z,109.47
2023-02-12T22:17:23.390Z,105.10
2023-02-12T22:19:51.752Z,248.85
2023-02-12T22:22:20.102Z,162.13
2023-02-12T22:24:48.413Z,110.65
2023-02-12T22:27:18.107Z,124.03
2023-02-12T22:29:46.435Z,102.87
2023-02-12T22:32:14.846Z,155.65
2023-02-12T22:34:43.716Z,81.55
2023-02-12T22:37:12.035Z,128.40
2023-02-12T22:39:40.291Z,87.50
2023-02-12T22:42:09.265Z,95.70
2023-02-12T22:44:39.101Z,223.27
2023-02-12T22:47:07.417Z,194.95
2023-02-12T22:49:35.694Z,164.75
2023-02-12T22:52:04.090Z,64.07
2023-02-12T22:54:32.411Z,107.03
2023-02-12T22:57:00.706Z,156.07
2023-02-12T22:59:29.108Z,130.70
2023-02-12T23:02:03.249Z,149.82
2023-02-12T23:04:31.697Z,75.72
2023-02-12T23:07:00.027Z,146.82
2023-02-12T23:09:28.403Z,70.70
2023-02-12T23:11:56.706Z,119.93
2023-02-12T23:14:25.081Z,60.25
2023-02-12T23:16:53.381Z,83.28
2023-02-12T23:19:23.151Z,43.65
2023-02-12T23:21:51.423Z,42.27
2023-02-12T23:24:19.657Z,87.38
2023-02-12T23:26:47.879Z,43.50
2023-02-12T23:29:16.197Z,45.08
2023-02-12T23:31:44.547Z,43.25
2023-02-12T23:34:12.878Z,40.00
2023-02-12T23:36:42.581Z,49.42
2023-02-12T23:39:12.951Z,38.33
2023-02-12T23:41:41.228Z,29.58
2023-02-12T23:44:10.517Z,56.05
2023-02-12T23:46:38.900Z,51.13
2023-02-12T23:49:07.258Z,56.53
2023-02-12T23:51:35.589Z,60.03
2023-02-12T23:54:05.200Z,69.45
2023-02-12T23:56:33.429Z,56.63
2023-02-12T23:59:01.645Z,37.08
